createdAt,value
2024-02-04T00:00:09.386Z,15.23
2024-02-04T00:02:39.902Z,16.10
2024-02-04T00:05:08.763Z,15.97
2024-02-04T00:07:37.275Z,16.20
2024-02-04T00:10:05.817Z,16.87
2024-02-04T00:12:34.262Z,16.10
2024-02-04T00:15:02.673Z,16.23
2024-02-04T00:17:32.692Z,15.00
2024-02-04T00:20:03.122Z,14.57
2024-02-04T00:22:31.479Z,16.53
2024-02-04T00:25:05.549Z,17.33
2024-02-04T00:27:34.203Z,16.33
2024-02-04T00:30:03.146Z,16.60
2024-02-04T00:32:31.620Z,16.40
2024-02-04T00:35:01.526Z,16.37
2024-02-04T00:37:29.873Z,15.00
2024-02-04T00:39:58.372Z,15.00
2024-02-04T00:42:26.768Z,15.80
2024-02-04T00:44:55.087Z,15.00
2024-02-04T00:47:23.388Z,14.57
2024-02-04T00:49:51.824Z,15.30
2024-02-04T00:52:21.616Z,14.50
2024-02-04T00:54:50.094Z,15.73
2024-02-04T00:57:18.450Z,15.73
2024-02-04T00:59:46.841Z,16.17
2024-02-04T01:02:15.293Z,16.37
2024-02-04T01:04:43.914Z,15.63
2024-02-04T01:07:12.421Z,15.50
2024-02-04T01:09:42.344Z,16.10
2024-02-04T01:12:11.066Z,16.00
2024-02-04T01:14:39.601Z,16.73
2024-02-04T01:17:08.731Z,17.13
2024-02-04T01:19:37.506Z,16.57
2024-02-04T01:22:07.229Z,16.13
2024-02-04T01:24:35.897Z,16.00
2024-02-04T01:27:06.199Z,16.53
2024-02-04T01:29:34.838Z,17.43
2024-02-04T01:32:03.456Z,16.30
2024-02-04T01:34:31.983Z,16.03
2024-02-04T01:37:00.558Z,16.43
2024-02-04T01:39:29.188Z,16.93
2024-02-04T01:41:57.755Z,18.93
2024-02-04T01:44:27.744Z,19.90
2024-02-04T01:46:57.178Z,20.33
2024-02-04T01:49:27.062Z,23.03
2024-02-04T01:51:56.250Z,21.43
2024-02-04T01:54:26.568Z,21.20
2024-02-04T01:56:55.766Z,21.20
2024-02-04T01:59:31.560Z,21.13
2024-02-04T02:02:01.915Z,22.50
2024-02-04T02:04:31.106Z,21.70
2024-02-04T02:07:01.334Z,21.43
2024-02-04T02:09:30.989Z,21.60
2024-02-04T02:12:08.125Z,20.73
2024-02-04T02:14:42.185Z,20.80
2024-02-04T02:17:19.261Z,20.57
2024-02-04T02:19:53.805Z,20.70
2024-02-04T02:22:31.567Z,20.87
2024-02-04T02:25:03.230Z,20.13
2024-02-04T02:27:31.830Z,19.23
2024-02-04T02:30:00.631Z,18.50
2024-02-04T02:32:29.292Z,18.10
2024-02-04T02:34:57.950Z,17.47
2024-02-04T02:37:35.196Z,17.20
2024-02-04T02:40:11.341Z,17.53
2024-02-04T02:42:44.740Z,17.33
2024-02-04T02:45:15.241Z,16.50
2024-02-04T02:47:45.312Z,16.93
2024-02-04T02:50:15.639Z,15.93
2024-02-04T02:52:44.120Z,16.23
2024-02-04T02:55:14.288Z,16.10
2024-02-04T02:57:43.045Z,15.90
2024-02-04T03:00:12.578Z,16.63
2024-02-04T03:02:41.119Z,15.87
2024-02-04T03:05:10.775Z,16.10
2024-02-04T03:07:39.264Z,16.23
2024-02-04T03:10:08.709Z,16.77
2024-02-04T03:12:38.806Z,17.47
2024-02-04T03:15:08.450Z,17.93
2024-02-04T03:17:37.038Z,17.07
2024-02-04T03:20:06.148Z,16.33
2024-02-04T03:22:34.813Z,16.20
2024-02-04T03:25:03.923Z,15.70
2024-02-04T03:27:32.490Z,16.10
2024-02-04T03:30:02.826Z,16.77
2024-02-04T03:32:35.100Z,16.83
2024-02-04T03:35:04.178Z,16.37
2024-02-04T03:37:32.891Z,16.30
2024-02-04T03:40:01.565Z,15.80
2024-02-04T03:42:30.318Z,15.87
2024-02-04T03:44:59.132Z,16.80
2024-02-04T03:47:29.033Z,14.93
2024-02-04T03:49:57.654Z,14.07
2024-02-04T03:52:26.261Z,13.77
2024-02-04T03:54:54.846Z,13.30
2024-02-04T03:57:23.416Z,14.57
2024-02-04T03:59:51.968Z,15.70
2024-02-04T04:02:20.605Z,16.80
2024-02-04T04:04:50.830Z,14.73
2024-02-04T04:07:19.635Z,14.20
2024-02-04T04:09:48.252Z,15.23
2024-02-04T04:12:16.948Z,15.73
2024-02-04T04:14:45.483Z,15.63
2024-02-04T04:17:14.425Z,16.20
2024-02-04T04:19:43.745Z,16.53
2024-02-04T04:22:14.231Z,21.07
2024-02-04T04:24:42.881Z,25.33
2024-02-04T04:27:12.647Z,26.97
2024-02-04T04:29:41.770Z,27.10
2024-02-04T04:32:10.289Z,29.30
2024-02-04T04:34:38.831Z,28.60
2024-02-04T04:37:08.048Z,30.97
2024-02-04T04:39:38.144Z,31.70
2024-02-04T04:42:07.224Z,30.70
2024-02-04T04:44:35.890Z,31.10
2024-02-04T04:47:04.406Z,32.33
2024-02-04T04:49:33.129Z,32.97
2024-02-04T04:52:01.812Z,33.07
2024-02-04T04:54:30.782Z,31.67
2024-02-04T04:57:00.826Z,31.40
2024-02-04T04:59:29.425Z,29.50
2024-02-04T05:01:58.053Z,31.10
2024-02-04T05:04:26.952Z,30.60
2024-02-04T05:06:55.803Z,29.33
2024-02-04T05:09:24.549Z,28.83
2024-02-04T05:11:53.051Z,28.80
2024-02-04T05:14:23.111Z,29.03
2024-02-04T05:16:51.626Z,28.00
2024-02-04T05:19:20.364Z,27.80
2024-02-04T05:21:48.990Z,27.60
2024-02-04T05:24:17.607Z,27.20
2024-02-04T05:26:46.197Z,25.60
2024-02-04T05:29:14.753Z,24.77
2024-02-04T05:31:45.245Z,24.60
2024-02-04T05:34:14.973Z,24.63
2024-02-04T05:36:43.510Z,22.83
2024-02-04T05:39:13.108Z,23.87
2024-02-04T05:41:41.806Z,24.47
2024-02-04T05:44:11.184Z,23.03
2024-02-04T05:46:40.395Z,21.97
2024-02-04T05:49:10.781Z,22.73
2024-02-04T05:51:41.809Z,21.77
2024-02-04T05:54:11.430Z,20.90
2024-02-04T05:56:39.953Z,20.33
2024-02-04T05:59:08.509Z,20.07
2024-02-04T06:01:37.125Z,20.37
2024-02-04T06:04:06.076Z,19.77
2024-02-04T06:06:36.417Z,18.87
2024-02-04T06:09:05.083Z,16.70
2024-02-04T06:11:33.780Z,14.87
2024-02-04T06:14:02.366Z,14.97
2024-02-04T06:16:31.557Z,14.80
2024-02-04T06:19:01.292Z,13.30
2024-02-04T06:21:30.040Z,13.37
2024-02-04T06:24:00.091Z,12.60
2024-02-04T06:26:28.625Z,11.87
2024-02-04T06:28:57.245Z,11.93
2024-02-04T06:31:25.794Z,12.00
2024-02-04T06:33:54.458Z,11.40
2024-02-04T06:36:23.197Z,10.20
2024-02-04T06:38:51.744Z,10.60
2024-02-04T06:41:21.692Z,10.70
2024-02-04T06:43:50.244Z,10.47
2024-02-04T06:46:27.257Z,10.60
2024-02-04T06:48:56.310Z,9.83
2024-02-04T06:51:25.107Z,10.47
2024-02-04T06:53:53.750Z,10.87
2024-02-04T06:56:23.675Z,10.63
2024-02-04T06:58:52.240Z,11.60
2024-02-04T07:01:20.725Z,11.40
2024-02-04T07:03:49.437Z,10.80
2024-02-04T07:06:18.151Z,10.57
2024-02-04T07:08:46.716Z,11.33
2024-02-04T07:11:15.292Z,11.10
2024-02-04T07:13:45.198Z,10.90
2024-02-04T07:16:13.515Z,11.73
2024-02-04T07:18:42.081Z,13.97
2024-02-04T07:21:10.564Z,13.07
2024-02-04T07:23:38.967Z,12.73
2024-02-04T07:26:07.654Z,12.73
2024-02-04T07:28:36.035Z,13.90
2024-02-04T07:31:06.261Z,23.30
2024-02-04T07:33:35.079Z,21.70
2024-02-04T07:36:03.642Z,20.37
2024-02-04T07:38:32.465Z,21.00
2024-02-04T07:41:00.842Z,18.77
2024-02-04T07:43:29.436Z,19.63
2024-02-04T07:45:58.851Z,20.23
2024-02-04T07:48:30.891Z,26.70
2024-02-04T07:50:59.311Z,30.93
2024-02-04T07:53:28.090Z,35.83
2024-02-04T07:55:56.379Z,33.50
2024-02-04T07:58:24.773Z,28.77
2024-02-04T08:00:53.119Z,23.77
2024-02-04T08:03:21.509Z,20.73
2024-02-04T08:05:51.263Z,17.97
2024-02-04T08:08:20.252Z,18.77
2024-02-04T08:10:48.713Z,18.53
2024-02-04T08:13:17.058Z,18.27
2024-02-04T08:15:45.683Z,21.63
2024-02-04T08:18:14.196Z,23.97
2024-02-04T08:20:42.605Z,22.07
2024-02-04T08:23:12.295Z,21.47
2024-02-04T08:25:40.585Z,22.97
2024-02-04T08:28:08.913Z,23.23
2024-02-04T08:30:37.322Z,18.77
2024-02-04T08:33:06.325Z,17.23
2024-02-04T08:35:34.785Z,19.13
2024-02-04T08:38:03.098Z,30.30
2024-02-04T08:40:33.022Z,32.93
2024-02-04T08:43:01.385Z,29.53
2024-02-04T08:45:29.929Z,39.17
2024-02-04T08:47:58.326Z,96.93
2024-02-04T08:50:26.881Z,238.37
2024-02-04T08:52:55.173Z,334.23
2024-02-04T08:55:23.675Z,285.73
2024-02-04T08:57:54.584Z,268.70
2024-02-04T09:00:24.038Z,253.23
2024-02-04T09:02:52.341Z,141.97
2024-02-04T09:05:21.278Z,100.90
2024-02-04T09:07:49.886Z,65.23
2024-02-04T09:10:18.537Z,64.37
2024-02-04T09:12:47.136Z,51.47
2024-02-04T09:15:17.341Z,38.23
2024-02-04T09:17:45.787Z,31.10
2024-02-04T09:20:16.864Z,27.57
2024-02-04T09:22:45.536Z,25.20
2024-02-04T09:25:14.074Z,25.47
2024-02-04T09:27:42.561Z,24.20
2024-02-04T09:30:12.863Z,24.27
2024-02-04T09:32:42.914Z,25.40
2024-02-04T09:35:11.756Z,25.30
2024-02-04T09:37:40.402Z,24.63
2024-02-04T09:40:10.173Z,25.43
2024-02-04T09:42:38.964Z,28.03
2024-02-04T09:45:08.957Z,28.83
2024-02-04T09:47:38.228Z,55.90
2024-02-04T09:50:09.197Z,112.93
2024-02-04T09:52:42.656Z,110.30
2024-02-04T09:55:15.398Z,68.23
2024-02-04T09:57:43.926Z,49.10
2024-02-04T10:00:14.228Z,58.77
2024-02-04T10:02:44.333Z,65.97
2024-02-04T10:05:14.267Z,55.83
2024-02-04T10:07:42.893Z,44.13
2024-02-04T10:10:13.346Z,34.47
2024-02-04T10:12:42.715Z,31.80
2024-02-04T10:15:12.331Z,27.97
2024-02-04T10:17:45.037Z,24.98
2024-02-04T10:20:18.442Z,23.45
2024-02-04T10:22:50.954Z,23.08
2024-02-04T10:25:22.551Z,23.42
2024-02-04T10:27:51.023Z,20.05
2024-02-04T10:30:22.260Z,16.60
2024-02-04T10:32:53.488Z,15.55
2024-02-04T10:35:25.537Z,15.00
2024-02-04T10:37:54.231Z,20.10
2024-02-04T10:40:22.749Z,23.70
2024-02-04T10:42:53.228Z,18.17
2024-02-04T10:45:32.961Z,11.43
2024-02-04T10:48:04.232Z,12.95
2024-02-04T10:50:37.412Z,7.20
2024-02-04T10:53:09.055Z,6.53
2024-02-04T10:55:42.953Z,5.50
2024-02-04T10:58:14.663Z,4.28
2024-02-04T11:00:43.878Z,4.90
2024-02-04T11:03:13.515Z,5.05
2024-02-04T11:05:45.601Z,4.90
2024-02-04T11:08:16.258Z,4.95
2024-02-04T11:10:44.704Z,5.15
2024-02-04T11:13:14.150Z,6.20
2024-02-04T11:15:46.085Z,5.38
2024-02-04T11:18:42.855Z,4.65
2024-02-04T11:21:30.268Z,5.25
2024-02-04T11:24:11.410Z,5.00
2024-02-04T11:26:42.402Z,5.10
2024-02-04T11:29:12.546Z,4.75
2024-02-04T11:31:41.830Z,4.75
2024-02-04T11:34:11.081Z,5.53
2024-02-04T11:36:42.655Z,5.65
2024-02-04T11:39:16.346Z,6.28
2024-02-04T11:41:49.157Z,6.00
2024-02-04T11:44:23.536Z,6.45
2024-02-04T11:46:52.510Z,7.95
2024-02-04T11:49:23.418Z,8.35
2024-02-04T11:51:55.050Z,9.50
2024-02-04T11:54:24.063Z,14.30
2024-02-04T11:56:55.001Z,16.70
2024-02-04T11:59:24.892Z,15.60
2024-02-04T12:01:56.672Z,11.45
2024-02-04T12:04:25.790Z,16.92
2024-02-04T12:06:56.077Z,12.60
2024-02-04T12:09:24.720Z,10.32
2024-02-04T12:11:55.740Z,9.23
2024-02-04T12:14:24.634Z,8.80
2024-02-04T12:16:53.587Z,8.63
2024-02-04T12:19:22.305Z,9.10
2024-02-04T12:21:50.916Z,8.10
2024-02-04T12:24:22.139Z,9.52
2024-02-04T12:26:50.691Z,9.00
2024-02-04T12:29:19.301Z,10.07
2024-02-04T12:31:47.802Z,10.43
2024-02-04T12:34:16.322Z,9.93
2024-02-04T12:36:46.991Z,9.65
2024-02-04T12:39:16.713Z,9.57
2024-02-04T12:41:53.790Z,10.63
2024-02-04T12:44:22.186Z,10.23
2024-02-04T12:46:54.207Z,10.02
2024-02-04T12:49:24.540Z,9.23
2024-02-04T12:51:55.345Z,10.50
2024-02-04T12:54:23.862Z,9.88
2024-02-04T12:56:55.673Z,10.65
2024-02-04T12:59:28.227Z,9.90
2024-02-04T13:01:57.559Z,9.65
2024-02-04T13:04:26.469Z,9.55
2024-02-04T13:06:55.263Z,9.00
2024-02-04T13:09:24.433Z,9.32
2024-02-04T13:11:54.281Z,9.30
2024-02-04T13:14:23.197Z,9.35
2024-02-04T13:16:52.022Z,9.70
2024-02-04T13:19:20.608Z,9.52
2024-02-04T13:21:48.999Z,9.43
2024-02-04T13:24:17.437Z,8.77
2024-02-04T13:26:45.838Z,8.95
2024-02-04T13:29:16.042Z,10.05
2024-02-04T13:31:44.652Z,9.85
2024-02-04T13:34:13.107Z,9.43
2024-02-04T13:36:41.577Z,9.30
2024-02-04T13:39:10.030Z,10.23
2024-02-04T13:41:38.354Z,10.38
2024-02-04T13:44:09.248Z,10.00
2024-02-04T13:46:40.446Z,9.25
2024-02-04T13:49:09.436Z,10.15
2024-02-04T13:51:44.475Z,10.05
2024-02-04T13:54:17.621Z,10.15
2024-02-04T13:56:47.393Z,10.93
2024-02-04T13:59:16.048Z,10.57
2024-02-04T14:01:46.152Z,10.85
2024-02-04T14:04:14.654Z,10.55
2024-02-04T14:06:43.099Z,11.43
2024-02-04T14:09:13.993Z,10.50
2024-02-04T14:11:42.462Z,10.80
2024-02-04T14:14:10.773Z,10.25
2024-02-04T14:16:39.267Z,10.57
2024-02-04T14:19:09.146Z,11.98
2024-02-04T14:21:37.931Z,11.30
2024-02-04T14:24:07.713Z,11.38
2024-02-04T14:26:37.118Z,11.25
2024-02-04T14:29:06.735Z,11.23
2024-02-04T14:31:36.005Z,11.20
2024-02-04T14:34:05.140Z,11.27
2024-02-04T14:36:35.027Z,10.10
2024-02-04T14:39:03.644Z,10.88
2024-02-04T14:41:31.923Z,9.80
2024-02-04T14:44:00.176Z,9.93
2024-02-04T14:46:28.538Z,10.73
2024-02-04T14:48:57.065Z,10.27
2024-02-04T14:51:25.493Z,10.60
2024-02-04T14:53:55.369Z,9.55
2024-02-04T14:56:24.987Z,10.35
2024-02-04T14:58:53.485Z,9.90
2024-02-04T15:01:22.457Z,8.85
2024-02-04T15:03:51.091Z,9.88
2024-02-04T15:06:20.947Z,10.10
2024-02-04T15:08:49.351Z,9.45
2024-02-04T15:11:19.715Z,9.77
2024-02-04T15:13:48.585Z,9.68
2024-02-04T15:16:17.901Z,10.30
2024-02-04T15:18:46.876Z,9.50
2024-02-04T15:21:15.791Z,10.18
2024-02-04T15:23:45.867Z,9.73
2024-02-04T15:26:17.575Z,9.50
2024-02-04T15:28:49.487Z,9.10
2024-02-04T15:31:18.403Z,9.15
2024-02-04T15:33:48.567Z,9.10
2024-02-04T15:36:17.496Z,9.10
2024-02-04T15:38:45.758Z,9.13
2024-02-04T15:41:14.105Z,9.13
2024-02-04T15:43:42.466Z,9.23
2024-02-04T15:46:12.775Z,9.77
2024-02-04T15:48:44.406Z,9.68
2024-02-04T15:51:13.984Z,9.05
2024-02-04T15:53:43.120Z,9.20
2024-02-04T15:56:13.195Z,9.63
2024-02-04T15:58:42.687Z,9.73
2024-02-04T16:01:16.513Z,9.65
2024-02-04T16:03:45.831Z,9.73
2024-02-04T16:06:14.896Z,9.98
2024-02-04T16:08:45.777Z,9.98
2024-02-04T16:11:18.645Z,9.75
2024-02-04T16:13:48.244Z,10.13
2024-02-04T16:16:23.095Z,10.18
2024-02-04T16:18:52.105Z,10.50
2024-02-04T16:21:20.431Z,9.88
2024-02-04T16:23:49.321Z,10.38
2024-02-04T16:26:17.813Z,9.90
2024-02-04T16:28:46.246Z,10.15
2024-02-04T16:31:14.768Z,9.93
2024-02-04T16:33:44.610Z,9.35
2024-02-04T16:36:12.917Z,10.15
2024-02-04T16:38:41.324Z,10.68
2024-02-04T16:41:13.075Z,12.73
2024-02-04T16:43:41.356Z,13.43
2024-02-04T16:46:09.740Z,13.77
2024-02-04T16:48:38.185Z,14.27
2024-02-04T16:51:08.122Z,25.92
2024-02-04T16:53:38.318Z,21.10
2024-02-04T16:56:07.180Z,24.60
2024-02-04T16:58:35.963Z,26.35
2024-02-04T17:01:04.510Z,28.38
2024-02-04T17:03:33.422Z,26.65
2024-02-04T17:06:02.429Z,26.33
2024-02-04T17:08:32.888Z,27.90
2024-02-04T17:11:01.684Z,32.55
2024-02-04T17:13:30.340Z,38.85
2024-02-04T17:15:59.487Z,38.15
2024-02-04T17:18:40.367Z,41.65
2024-02-04T17:21:11.013Z,49.58
2024-02-04T17:23:42.775Z,46.72
2024-02-04T17:26:12.917Z,45.05
2024-02-04T17:28:41.682Z,47.42
2024-02-04T17:31:11.133Z,42.55
2024-02-04T17:33:40.226Z,31.63
2024-02-04T17:36:08.885Z,26.42
2024-02-04T17:38:38.254Z,27.17
2024-02-04T17:41:09.819Z,31.42
2024-02-04T17:43:38.163Z,27.77
2024-02-04T17:46:07.047Z,29.38
2024-02-04T17:48:35.585Z,30.27
2024-02-04T17:51:10.395Z,31.50
2024-02-04T17:53:45.788Z,30.30
2024-02-04T17:56:18.880Z,26.95
2024-02-04T17:58:48.891Z,27.92
2024-02-04T18:01:22.194Z,28.75
2024-02-04T18:03:51.577Z,32.72
2024-02-04T18:06:20.095Z,33.03
2024-02-04T18:08:48.585Z,32.85
2024-02-04T18:11:19.213Z,33.83
2024-02-04T18:13:48.270Z,32.38
2024-02-04T18:16:17.208Z,34.65
2024-02-04T18:18:46.620Z,35.25
2024-02-04T18:21:22.011Z,37.53
2024-02-04T18:23:53.024Z,43.38
2024-02-04T18:26:24.640Z,41.03
2024-02-04T18:28:56.918Z,35.13
2024-02-04T18:31:30.626Z,36.38
2024-02-04T18:34:00.733Z,37.70
2024-02-04T18:36:29.641Z,44.03
2024-02-04T18:38:59.458Z,44.88
2024-02-04T18:41:30.852Z,50.35
2024-02-04T18:43:59.418Z,47.80
2024-02-04T18:46:27.919Z,42.53
2024-02-04T18:48:57.706Z,38.30
2024-02-04T18:51:26.678Z,34.90
2024-02-04T18:53:55.492Z,34.53
2024-02-04T18:56:25.245Z,32.00
2024-02-04T18:58:55.889Z,29.42
2024-02-04T19:01:26.132Z,25.08
2024-02-04T19:03:55.616Z,23.38
2024-02-04T19:06:28.406Z,25.45
2024-02-04T19:08:57.122Z,31.75
2024-02-04T19:11:26.032Z,34.33
2024-02-04T19:13:57.915Z,38.00
2024-02-04T19:16:26.882Z,39.88
2024-02-04T19:18:57.011Z,37.50
2024-02-04T19:21:25.629Z,37.15
2024-02-04T19:23:54.388Z,33.83
2024-02-04T19:26:30.881Z,32.88
2024-02-04T19:29:04.366Z,32.15
2024-02-04T19:31:32.988Z,28.02
2024-02-04T19:34:02.000Z,26.35
2024-02-04T19:36:31.215Z,25.67
2024-02-04T19:38:59.722Z,27.10
2024-02-04T19:41:28.135Z,28.03
2024-02-04T19:43:56.939Z,29.60
2024-02-04T19:46:28.728Z,31.75
2024-02-04T19:49:01.759Z,30.47
2024-02-04T19:51:32.493Z,30.67
2024-02-04T19:54:02.334Z,28.52
2024-02-04T19:56:31.055Z,30.20
2024-02-04T19:59:04.829Z,28.13
2024-02-04T20:01:36.128Z,25.98
2024-02-04T20:04:05.250Z,24.90
2024-02-04T20:06:33.800Z,25.00
2024-02-04T20:09:02.722Z,24.13
2024-02-04T20:11:33.646Z,21.17
2024-02-04T20:14:05.077Z,20.00
2024-02-04T20:16:35.142Z,19.77
2024-02-04T20:19:07.734Z,19.45
2024-02-04T20:21:36.615Z,20.10
2024-02-04T20:24:05.746Z,20.38
2024-02-04T20:26:34.539Z,21.38
2024-02-04T20:29:02.902Z,21.60
2024-02-04T20:31:31.388Z,22.40
2024-02-04T20:34:01.361Z,21.20
2024-02-04T20:36:29.810Z,21.52
2024-02-04T20:38:58.138Z,20.65
2024-02-04T20:41:26.577Z,20.40
2024-02-04T20:43:55.351Z,22.73
2024-02-04T20:46:23.977Z,21.60
2024-02-04T20:48:52.417Z,22.38
2024-02-04T20:51:26.093Z,21.08
2024-02-04T20:53:55.735Z,20.77
2024-02-04T20:56:24.297Z,20.97
2024-02-04T20:58:52.798Z,20.20
2024-02-04T21:01:22.250Z,20.17
2024-02-04T21:03:50.943Z,21.08
2024-02-04T21:06:21.801Z,21.97
2024-02-04T21:08:50.754Z,23.43
2024-02-04T21:11:23.260Z,24.07
2024-02-04T21:13:53.379Z,23.65
2024-02-04T21:16:24.139Z,21.58
2024-02-04T21:18:53.575Z,21.57
2024-02-04T21:21:24.010Z,21.23
2024-02-04T21:23:52.875Z,19.20
2024-02-04T21:26:22.015Z,19.80
2024-02-04T21:28:50.416Z,21.45
2024-02-04T21:31:19.011Z,20.08
2024-02-04T21:33:47.731Z,20.15
2024-02-04T21:36:16.250Z,19.02
2024-02-04T21:38:46.131Z,18.48
2024-02-04T21:41:20.316Z,18.33
2024-02-04T21:43:49.138Z,16.65
2024-02-04T21:46:18.120Z,17.52
2024-02-04T21:48:46.838Z,19.98
2024-02-04T21:51:15.518Z,22.17
2024-02-04T21:53:45.390Z,19.63
2024-02-04T21:56:14.659Z,19.15
2024-02-04T21:58:43.140Z,17.75
2024-02-04T22:01:11.630Z,18.60
2024-02-04T22:03:40.203Z,16.80
2024-02-04T22:06:08.708Z,16.48
2024-02-04T22:08:37.778Z,15.07
2024-02-04T22:11:08.286Z,15.60
2024-02-04T22:13:37.672Z,14.90
2024-02-04T22:16:07.406Z,16.48
2024-02-04T22:18:37.677Z,16.23
2024-02-04T22:21:06.638Z,16.95
2024-02-04T22:23:35.257Z,17.60
2024-02-04T22:26:03.667Z,18.55
2024-02-04T22:28:33.561Z,17.90
2024-02-04T22:31:02.034Z,17.47
2024-02-04T22:33:30.450Z,15.38
2024-02-04T22:35:58.872Z,14.95
2024-02-04T22:38:27.379Z,14.55
2024-02-04T22:40:56.151Z,14.27
2024-02-04T22:43:24.937Z,13.70
2024-02-04T22:45:55.173Z,14.02
2024-02-04T22:48:24.499Z,14.43
2024-02-04T22:50:52.946Z,13.93
2024-02-04T22:53:21.822Z,14.65
2024-02-04T22:55:50.269Z,14.48
2024-02-04T22:58:18.687Z,14.23
2024-02-04T23:00:47.241Z,13.93
2024-02-04T23:03:17.234Z,14.23
2024-02-04T23:05:44.645Z,14.85
2024-02-04T23:08:13.203Z,13.73
2024-02-04T23:10:41.738Z,13.60
2024-02-04T23:13:13.682Z,14.32
2024-02-04T23:15:43.569Z,14.77
2024-02-04T23:18:12.076Z,14.93
2024-02-04T23:20:44.742Z,16.45
2024-02-04T23:23:13.135Z,17.77
2024-02-04T23:25:41.627Z,19.23
2024-02-04T23:28:10.494Z,19.13
2024-02-04T23:30:38.906Z,17.27
2024-02-04T23:33:07.290Z,16.52
2024-02-04T23:35:35.711Z,15.67
2024-02-04T23:38:05.973Z,15.27
2024-02-04T23:40:34.482Z,14.23
2024-02-04T23:43:03.080Z,13.65
2024-02-04T23:45:31.540Z,13.20
2024-02-04T23:48:00.034Z,13.57
2024-02-04T23:50:30.101Z,13.47
2024-02-04T23:52:58.503Z,13.47
2024-02-04T23:55:28.623Z,12.73
2024-02-04T23:57:57.035Z,12.77
